sensor_id;sensor_type;location;lat;lon;timestamp;P1;durP1;ratioP1;P2;durP2;ratioP2
17604;SDS011;8921;50.964;6.800;2023-03-01T00:01:06;17.97;;;12.70;;
17604;SDS011;8921;50.964;6.800;2023-03-01T00:03:33;17.33;;;11.60;;
17604;SDS011;8921;50.964;6.800;2023-03-01T00:06:01;15.97;;;11.33;;
17604;SDS011;8921;50.964;6.800;2023-03-01T00:08:29;15.87;;;11.00;;
17604;SDS011;8921;50.964;6.800;2023-03-01T00:13:29;17.53;;;11.07;;
17604;SDS011;8921;50.964;6.800;2023-03-01T00:15:57;12.90;;;9.83;;
17604;SDS011;8921;50.964;6.800;2023-03-01T00:18:25;21.37;;;11.20;;
17604;SDS011;8921;50.964;6.800;2023-03-01T00:20:54;17.97;;;11.57;;
17604;SDS011;8921;50.964;6.800;2023-03-01T00:23:22;17.30;;;10.83;;
17604;SDS011;8921;50.964;6.800;2023-03-01T00:25:50;16.05;;;11.40;;
17604;SDS011;8921;50.964;6.800;2023-03-01T00:28:18;17.27;;;12.07;;
17604;SDS011;8921;50.964;6.800;2023-03-01T00:30:47;17.40;;;11.63;;
17604;SDS011;8921;50.964;6.800;2023-03-01T00:33:15;17.33;;;11.93;;
17604;SDS011;8921;50.964;6.800;2023-03-01T00:35:43;23.93;;;14.53;;
17604;SDS011;8921;50.964;6.800;2023-03-01T00:38:12;16.93;;;11.80;;
17604;SDS011;8921;50.964;6.800;2023-03-01T00:40:40;18.10;;;12.97;;
17604;SDS011;8921;50.964;6.800;2023-03-01T00:43:08;18.53;;;12.40;;
17604;SDS011;8921;50.964;6.800;2023-03-01T00:45:36;16.13;;;11.37;;
17604;SDS011;8921;50.964;6.800;2023-03-01T00:48:05;15.43;;;11.53;;
17604;SDS011;8921;50.964;6.800;2023-03-01T00:50:33;22.10;;;12.47;;
17604;SDS011;8921;50.964;6.800;2023-03-01T00:53:01;18.37;;;12.80;;
17604;SDS011;8921;50.964;6.800;2023-03-01T00:55:30;17.10;;;10.70;;
17604;SDS011;8921;50.964;6.800;2023-03-01T00:57:58;16.00;;;11.77;;
17604;SDS011;8921;50.964;6.800;2023-03-01T01:00:26;14.17;;;10.67;;
17604;SDS011;8921;50.964;6.800;2023-03-01T01:02:54;16.67;;;11.67;;
17604;SDS011;8921;50.964;6.800;2023-03-01T01:05:23;15.57;;;10.87;;
17604;SDS011;8921;50.964;6.800;2023-03-01T01:07:51;18.70;;;12.50;;
17604;SDS011;8921;50.964;6.800;2023-03-01T01:10:19;13.65;;;10.08;;
17604;SDS011;8921;50.964;6.800;2023-03-01T01:12:48;16.57;;;10.80;;
17604;SDS011;8921;50.964;6.800;2023-03-01T01:15:16;14.47;;;11.27;;
17604;SDS011;8921;50.964;6.800;2023-03-01T01:17:44;19.57;;;11.53;;
17604;SDS011;8921;50.964;6.800;2023-03-01T01:20:13;18.67;;;10.32;;
17604;SDS011;8921;50.964;6.800;2023-03-01T01:22:41;15.00;;;10.03;;
17604;SDS011;8921;50.964;6.800;2023-03-01T01:25:09;19.40;;;11.10;;
17604;SDS011;8921;50.964;6.800;2023-03-01T01:27:38;16.90;;;10.82;;
17604;SDS011;8921;50.964;6.800;2023-03-01T01:30:06;14.98;;;10.78;;
17604;SDS011;8921;50.964;6.800;2023-03-01T01:32:35;14.40;;;10.60;;
17604;SDS011;8921;50.964;6.800;2023-03-01T01:35:03;17.43;;;11.20;;
17604;SDS011;8921;50.964;6.800;2023-03-01T01:37:31;19.40;;;10.60;;
17604;SDS011;8921;50.964;6.800;2023-03-01T01:40:00;16.52;;;11.63;;
17604;SDS011;8921;50.964;6.800;2023-03-01T01:42:28;15.50;;;11.17;;
17604;SDS011;8921;50.964;6.800;2023-03-01T01:47:50;21.33;;;11.33;;
17604;SDS011;8921;50.964;6.800;2023-03-01T01:50:18;18.50;;;11.17;;
17604;SDS011;8921;50.964;6.800;2023-03-01T01:52:46;14.90;;;10.80;;
17604;SDS011;8921;50.964;6.800;2023-03-01T01:55:15;19.00;;;12.20;;
17604;SDS011;8921;50.964;6.800;2023-03-01T01:57:44;15.80;;;11.17;;
17604;SDS011;8921;50.964;6.800;2023-03-01T02:00:18;17.90;;;11.97;;
17604;SDS011;8921;50.964;6.800;2023-03-01T02:02:46;17.00;;;10.70;;
17604;SDS011;8921;50.964;6.800;2023-03-01T02:07:57;17.93;;;11.70;;
17604;SDS011;8921;50.964;6.800;2023-03-01T02:10:25;18.20;;;11.60;;
17604;SDS011;8921;50.964;6.800;2023-03-01T02:12:53;17.17;;;12.13;;
17604;SDS011;8921;50.964;6.800;2023-03-01T02:15:23;16.37;;;11.30;;
17604;SDS011;8921;50.964;6.800;2023-03-01T02:17:50;18.60;;;12.07;;
17604;SDS011;8921;50.964;6.800;2023-03-01T02:20:23;21.40;;;12.43;;
17604;SDS011;8921;50.964;6.800;2023-03-01T02:22:52;16.47;;;11.40;;
17604;SDS011;8921;50.964;6.800;2023-03-01T02:25:26;17.13;;;12.03;;
17604;SDS011;8921;50.964;6.800;2023-03-01T02:28:10;19.10;;;12.60;;
17604;SDS011;8921;50.964;6.800;2023-03-01T02:30:47;16.17;;;10.03;;
17604;SDS011;8921;50.964;6.800;2023-03-01T02:33:34;22.70;;;12.67;;
17604;SDS011;8921;50.964;6.800;2023-03-01T02:36:03;18.80;;;11.70;;
17604;SDS011;8921;50.964;6.800;2023-03-01T02:38:30;18.77;;;11.83;;
17604;SDS011;8921;50.964;6.800;2023-03-01T02:40:58;15.67;;;11.30;;
17604;SDS011;8921;50.964;6.800;2023-03-01T02:43:27;19.57;;;12.50;;
17604;SDS011;8921;50.964;6.800;2023-03-01T02:45:57;15.13;;;10.43;;
17604;SDS011;8921;50.964;6.800;2023-03-01T02:48:23;16.73;;;11.20;;
17604;SDS011;8921;50.964;6.800;2023-03-01T02:51:01;18.23;;;12.80;;
17604;SDS011;8921;50.964;6.800;2023-03-01T02:53:41;20.50;;;12.83;;
17604;SDS011;8921;50.964;6.800;2023-03-01T02:56:09;20.57;;;13.07;;
17604;SDS011;8921;50.964;6.800;2023-03-01T02:58:37;16.27;;;11.17;;
17604;SDS011;8921;50.964;6.800;2023-03-01T03:01:06;16.43;;;12.33;;
17604;SDS011;8921;50.964;6.800;2023-03-01T03:03:34;19.20;;;12.80;;
17604;SDS011;8921;50.964;6.800;2023-03-01T03:06:02;24.10;;;10.83;;
17604;SDS011;8921;50.964;6.800;2023-03-01T03:08:30;21.93;;;14.70;;
17604;SDS011;8921;50.964;6.800;2023-03-01T03:10:59;24.15;;;15.43;;
17604;SDS011;8921;50.964;6.800;2023-03-01T03:13:27;23.43;;;15.37;;
17604;SDS011;8921;50.964;6.800;2023-03-01T03:15:55;20.43;;;14.20;;
17604;SDS011;8921;50.964;6.800;2023-03-01T03:18:24;15.93;;;11.10;;
17604;SDS011;8921;50.964;6.800;2023-03-01T03:20:52;18.87;;;12.93;;
17604;SDS011;8921;50.964;6.800;2023-03-01T03:23:21;18.67;;;12.00;;
17604;SDS011;8921;50.964;6.800;2023-03-01T03:25:49;18.10;;;11.90;;
17604;SDS011;8921;50.964;6.800;2023-03-01T03:28:17;27.13;;;16.40;;
17604;SDS011;8921;50.964;6.800;2023-03-01T03:30:45;21.43;;;14.20;;
17604;SDS011;8921;50.964;6.800;2023-03-01T03:33:14;21.80;;;14.97;;
17604;SDS011;8921;50.964;6.800;2023-03-01T03:35:47;18.07;;;14.03;;
17604;SDS011;8921;50.964;6.800;2023-03-01T03:38:13;17.13;;;11.97;;
17604;SDS011;8921;50.964;6.800;2023-03-01T03:40:45;16.83;;;12.13;;
17604;SDS011;8921;50.964;6.800;2023-03-01T03:43:14;20.93;;;13.00;;
17604;SDS011;8921;50.964;6.800;2023-03-01T03:45:41;21.27;;;12.28;;
17604;SDS011;8921;50.964;6.800;2023-03-01T03:48:09;16.70;;;11.87;;
17604;SDS011;8921;50.964;6.800;2023-03-01T03:50:38;18.37;;;13.20;;
17604;SDS011;8921;50.964;6.800;2023-03-01T03:53:09;18.48;;;11.55;;
17604;SDS011;8921;50.964;6.800;2023-03-01T03:55:34;15.32;;;11.05;;
17604;SDS011;8921;50.964;6.800;2023-03-01T03:58:02;18.40;;;12.13;;
17604;SDS011;8921;50.964;6.800;2023-03-01T04:00:31;19.52;;;13.30;;
17604;SDS011;8921;50.964;6.800;2023-03-01T04:03:02;21.73;;;12.80;;
17604;SDS011;8921;50.964;6.800;2023-03-01T04:05:30;22.53;;;13.20;;
17604;SDS011;8921;50.964;6.800;2023-03-01T04:07:58;17.90;;;12.10;;
17604;SDS011;8921;50.964;6.800;2023-03-01T04:10:30;19.43;;;11.90;;
17604;SDS011;8921;50.964;6.800;2023-03-01T04:12:57;20.70;;;13.13;;
17604;SDS011;8921;50.964;6.800;2023-03-01T04:15:26;17.97;;;12.90;;
17604;SDS011;8921;50.964;6.800;2023-03-01T04:17:54;23.37;;;14.50;;
17604;SDS011;8921;50.964;6.800;2023-03-01T04:20:24;22.75;;;13.10;;
17604;SDS011;8921;50.964;6.800;2023-03-01T04:22:52;21.43;;;13.40;;
17604;SDS011;8921;50.964;6.800;2023-03-01T04:25:25;16.90;;;12.77;;
17604;SDS011;8921;50.964;6.800;2023-03-01T04:27:53;19.43;;;11.57;;
17604;SDS011;8921;50.964;6.800;2023-03-01T04:30:22;21.37;;;13.37;;
17604;SDS011;8921;50.964;6.800;2023-03-01T04:32:50;19.93;;;13.20;;
17604;SDS011;8921;50.964;6.800;2023-03-01T04:35:18;18.63;;;11.53;;
17604;SDS011;8921;50.964;6.800;2023-03-01T04:37:47;18.15;;;11.78;;
17604;SDS011;8921;50.964;6.800;2023-03-01T04:40:15;26.87;;;13.07;;
17604;SDS011;8921;50.964;6.800;2023-03-01T04:42:43;17.77;;;12.68;;
17604;SDS011;8921;50.964;6.800;2023-03-01T04:45:12;30.00;;;11.50;;
17604;SDS011;8921;50.964;6.800;2023-03-01T04:47:41;19.83;;;13.73;;
17604;SDS011;8921;50.964;6.800;2023-03-01T04:50:09;22.60;;;13.93;;
17604;SDS011;8921;50.964;6.800;2023-03-01T04:52:37;21.87;;;13.47;;
17604;SDS011;8921;50.964;6.800;2023-03-01T04:55:06;20.70;;;12.83;;
17604;SDS011;8921;50.964;6.800;2023-03-01T04:57:34;27.33;;;14.50;;
17604;SDS011;8921;50.964;6.800;2023-03-01T05:00:03;20.83;;;13.73;;
17604;SDS011;8921;50.964;6.800;2023-03-01T05:02:53;27.30;;;13.93;;
17604;SDS011;8921;50.964;6.800;2023-03-01T05:05:32;21.67;;;13.70;;
17604;SDS011;8921;50.964;6.800;2023-03-01T05:07:57;21.73;;;14.60;;
17604;SDS011;8921;50.964;6.800;2023-03-01T05:10:26;20.60;;;12.95;;
17604;SDS011;8921;50.964;6.800;2023-03-01T05:12:53;20.65;;;13.50;;
17604;SDS011;8921;50.964;6.800;2023-03-01T05:15:22;18.50;;;11.70;;
17604;SDS011;8921;50.964;6.800;2023-03-01T05:17:50;17.33;;;12.73;;
17604;SDS011;8921;50.964;6.800;2023-03-01T05:20:18;18.30;;;12.25;;
17604;SDS011;8921;50.964;6.800;2023-03-01T05:22:46;21.83;;;15.47;;
17604;SDS011;8921;50.964;6.800;2023-03-01T05:25:15;19.05;;;12.07;;
17604;SDS011;8921;50.964;6.800;2023-03-01T05:27:43;21.52;;;12.85;;
17604;SDS011;8921;50.964;6.800;2023-03-01T05:30:12;22.00;;;15.45;;
17604;SDS011;8921;50.964;6.800;2023-03-01T05:32:43;19.00;;;12.60;;
17604;SDS011;8921;50.964;6.800;2023-03-01T05:35:09;17.50;;;13.37;;
17604;SDS011;8921;50.964;6.800;2023-03-01T05:37:37;20.60;;;14.40;;
17604;SDS011;8921;50.964;6.800;2023-03-01T05:40:05;19.97;;;14.17;;
17604;SDS011;8921;50.964;6.800;2023-03-01T05:42:34;17.98;;;11.95;;
17604;SDS011;8921;50.964;6.800;2023-03-01T05:45:02;21.05;;;13.68;;
17604;SDS011;8921;50.964;6.800;2023-03-01T05:47:33;26.77;;;14.75;;
17604;SDS011;8921;50.964;6.800;2023-03-01T05:50:02;21.80;;;14.97;;
17604;SDS011;8921;50.964;6.800;2023-03-01T05:52:30;17.80;;;12.55;;
17604;SDS011;8921;50.964;6.800;2023-03-01T05:54:58;22.10;;;15.90;;
17604;SDS011;8921;50.964;6.800;2023-03-01T05:57:27;21.07;;;14.55;;
17604;SDS011;8921;50.964;6.800;2023-03-01T05:59:55;19.53;;;14.10;;
17604;SDS011;8921;50.964;6.800;2023-03-01T06:02:23;24.43;;;16.85;;
17604;SDS011;8921;50.964;6.800;2023-03-01T06:04:51;22.82;;;15.15;;
17604;SDS011;8921;50.964;6.800;2023-03-01T06:07:20;26.37;;;16.25;;
17604;SDS011;8921;50.964;6.800;2023-03-01T06:09:48;23.95;;;14.13;;
17604;SDS011;8921;50.964;6.800;2023-03-01T06:12:16;19.75;;;13.00;;
17604;SDS011;8921;50.964;6.800;2023-03-01T06:14:45;21.03;;;13.20;;
17604;SDS011;8921;50.964;6.800;2023-03-01T06:17:13;22.07;;;13.97;;
17604;SDS011;8921;50.964;6.800;2023-03-01T06:19:41;19.93;;;15.37;;
17604;SDS011;8921;50.964;6.800;2023-03-01T06:22:10;24.90;;;15.97;;
17604;SDS011;8921;50.964;6.800;2023-03-01T06:24:38;26.30;;;15.53;;
17604;SDS011;8921;50.964;6.800;2023-03-01T06:27:06;24.13;;;14.07;;
17604;SDS011;8921;50.964;6.800;2023-03-01T06:29:34;24.98;;;18.07;;
17604;SDS011;8921;50.964;6.800;2023-03-01T06:32:03;26.25;;;15.40;;
17604;SDS011;8921;50.964;6.800;2023-03-01T06:34:31;23.65;;;14.53;;
17604;SDS011;8921;50.964;6.800;2023-03-01T06:36:59;21.20;;;13.43;;
17604;SDS011;8921;50.964;6.800;2023-03-01T06:39:28;22.25;;;13.55;;
17604;SDS011;8921;50.964;6.800;2023-03-01T06:41:56;25.43;;;15.80;;
17604;SDS011;8921;50.964;6.800;2023-03-01T06:44:24;21.95;;;13.90;;
17604;SDS011;8921;50.964;6.800;2023-03-01T06:46:53;20.50;;;12.63;;
17604;SDS011;8921;50.964;6.800;2023-03-01T06:49:21;23.50;;;14.40;;
17604;SDS011;8921;50.964;6.800;2023-03-01T06:51:49;22.85;;;13.95;;
17604;SDS011;8921;50.964;6.800;2023-03-01T06:54:18;22.70;;;14.33;;
17604;SDS011;8921;50.964;6.800;2023-03-01T06:56:46;26.10;;;16.30;;
17604;SDS011;8921;50.964;6.800;2023-03-01T06:59:15;29.10;;;19.47;;
17604;SDS011;8921;50.964;6.800;2023-03-01T07:01:43;23.33;;;15.10;;
17604;SDS011;8921;50.964;6.800;2023-03-01T07:04:11;23.90;;;13.13;;
17604;SDS011;8921;50.964;6.800;2023-03-01T07:06:39;19.80;;;13.63;;
17604;SDS011;8921;50.964;6.800;2023-03-01T07:09:07;21.27;;;13.13;;
17604;SDS011;8921;50.964;6.800;2023-03-01T07:11:39;17.03;;;12.30;;
17604;SDS011;8921;50.964;6.800;2023-03-01T07:14:07;19.10;;;11.77;;
17604;SDS011;8921;50.964;6.800;2023-03-01T07:16:35;17.60;;;11.87;;
17604;SDS011;8921;50.964;6.800;2023-03-01T07:19:04;19.57;;;12.13;;
17604;SDS011;8921;50.964;6.800;2023-03-01T07:21:32;18.60;;;12.60;;
17604;SDS011;8921;50.964;6.800;2023-03-01T07:24:00;15.73;;;12.07;;
17604;SDS011;8921;50.964;6.800;2023-03-01T07:26:28;21.10;;;13.33;;
17604;SDS011;8921;50.964;6.800;2023-03-01T07:28:58;20.50;;;13.13;;
17604;SDS011;8921;50.964;6.800;2023-03-01T07:31:25;21.80;;;14.30;;
17604;SDS011;8921;50.964;6.800;2023-03-01T07:33:56;18.60;;;13.57;;
17604;SDS011;8921;50.964;6.800;2023-03-01T07:36:25;19.77;;;12.53;;
17604;SDS011;8921;50.964;6.800;2023-03-01T07:38:53;17.67;;;12.90;;
17604;SDS011;8921;50.964;6.800;2023-03-01T07:41:21;20.33;;;13.40;;
17604;SDS011;8921;50.964;6.800;2023-03-01T07:43:50;20.10;;;12.27;;
17604;SDS011;8921;50.964;6.800;2023-03-01T07:46:25;21.33;;;12.67;;
17604;SDS011;8921;50.964;6.800;2023-03-01T07:48:53;20.37;;;12.90;;
17604;SDS011;8921;50.964;6.800;2023-03-01T07:51:21;19.73;;;13.67;;
17604;SDS011;8921;50.964;6.800;2023-03-01T07:53:50;20.23;;;13.77;;
17604;SDS011;8921;50.964;6.800;2023-03-01T07:56:18;22.40;;;13.93;;
17604;SDS011;8921;50.964;6.800;2023-03-01T07:58:46;20.77;;;12.93;;
17604;SDS011;8921;50.964;6.800;2023-03-01T08:01:16;20.90;;;13.93;;
17604;SDS011;8921;50.964;6.800;2023-03-01T08:03:43;19.20;;;11.83;;
17604;SDS011;8921;50.964;6.800;2023-03-01T08:06:12;18.13;;;12.20;;
17604;SDS011;8921;50.964;6.800;2023-03-01T08:08:40;19.13;;;12.60;;
17604;SDS011;8921;50.964;6.800;2023-03-01T08:11:10;18.37;;;12.00;;
17604;SDS011;8921;50.964;6.800;2023-03-01T08:13:36;22.30;;;13.43;;
17604;SDS011;8921;50.964;6.800;2023-03-01T08:16:06;19.87;;;12.20;;
17604;SDS011;8921;50.964;6.800;2023-03-01T08:18:39;20.23;;;12.70;;
17604;SDS011;8921;50.964;6.800;2023-03-01T08:21:11;18.57;;;13.63;;
17604;SDS011;8921;50.964;6.800;2023-03-01T08:23:35;23.60;;;14.70;;
17604;SDS011;8921;50.964;6.800;2023-03-01T08:26:08;27.33;;;12.47;;
17604;SDS011;8921;50.964;6.800;2023-03-01T08:28:38;23.13;;;13.70;;
17604;SDS011;8921;50.964;6.800;2023-03-01T08:31:13;27.00;;;15.10;;
17604;SDS011;8921;50.964;6.800;2023-03-01T08:33:43;27.00;;;16.27;;
17604;SDS011;8921;50.964;6.800;2023-03-01T08:36:12;23.53;;;15.33;;
17604;SDS011;8921;50.964;6.800;2023-03-01T08:38:40;25.70;;;13.20;;
17604;SDS011;8921;50.964;6.800;2023-03-01T08:41:08;20.70;;;14.30;;
17604;SDS011;8921;50.964;6.800;2023-03-01T08:43:36;25.43;;;16.30;;
17604;SDS011;8921;50.964;6.800;2023-03-01T08:46:05;24.63;;;12.53;;
17604;SDS011;8921;50.964;6.800;2023-03-01T08:48:33;23.37;;;14.17;;
17604;SDS011;8921;50.964;6.800;2023-03-01T08:51:35;19.73;;;13.13;;
17604;SDS011;8921;50.964;6.800;2023-03-01T08:53:42;24.53;;;12.90;;
17604;SDS011;8921;50.964;6.800;2023-03-01T08:56:10;22.30;;;13.37;;
17604;SDS011;8921;50.964;6.800;2023-03-01T08:58:39;20.27;;;13.40;;
17604;SDS011;8921;50.964;6.800;2023-03-01T09:01:10;20.47;;;13.40;;
17604;SDS011;8921;50.964;6.800;2023-03-01T09:03:38;22.87;;;14.30;;
17604;SDS011;8921;50.964;6.800;2023-03-01T09:06:07;26.23;;;14.80;;
17604;SDS011;8921;50.964;6.800;2023-03-01T09:08:38;21.13;;;13.70;;
17604;SDS011;8921;50.964;6.800;2023-03-01T09:11:06;20.70;;;13.60;;
17604;SDS011;8921;50.964;6.800;2023-03-01T09:13:34;22.47;;;13.57;;
17604;SDS011;8921;50.964;6.800;2023-03-01T09:16:03;20.73;;;14.57;;
17604;SDS011;8921;50.964;6.800;2023-03-01T09:18:31;20.90;;;13.87;;
17604;SDS011;8921;50.964;6.800;2023-03-01T09:21:06;20.47;;;13.33;;
17604;SDS011;8921;50.964;6.800;2023-03-01T09:23:34;22.17;;;13.67;;
17604;SDS011;8921;50.964;6.800;2023-03-01T09:26:02;22.10;;;13.37;;
17604;SDS011;8921;50.964;6.800;2023-03-01T09:28:30;21.50;;;13.40;;
17604;SDS011;8921;50.964;6.800;2023-03-01T09:30:59;19.43;;;13.40;;
17604;SDS011;8921;50.964;6.800;2023-03-01T09:33:27;23.47;;;14.03;;
17604;SDS011;8921;50.964;6.800;2023-03-01T09:35:58;19.40;;;13.70;;
17604;SDS011;8921;50.964;6.800;2023-03-01T09:38:26;20.80;;;12.50;;
17604;SDS011;8921;50.964;6.800;2023-03-01T09:40:54;21.93;;;13.90;;
17604;SDS011;8921;50.964;6.800;2023-03-01T09:46:08;21.47;;;13.03;;
17604;SDS011;8921;50.964;6.800;2023-03-01T09:48:45;18.20;;;12.87;;
17604;SDS011;8921;50.964;6.800;2023-03-01T09:51:16;21.10;;;12.83;;
17604;SDS011;8921;50.964;6.800;2023-03-01T09:53:42;20.80;;;11.40;;
17604;SDS011;8921;50.964;6.800;2023-03-01T09:56:13;18.80;;;11.23;;
17604;SDS011;8921;50.964;6.800;2023-03-01T10:01:36;16.60;;;11.20;;
17604;SDS011;8921;50.964;6.800;2023-03-01T10:07:05;16.83;;;10.93;;
17604;SDS011;8921;50.964;6.800;2023-03-01T10:09:41;15.83;;;9.83;;
17604;SDS011;8921;50.964;6.800;2023-03-01T10:12:22;17.83;;;11.67;;
17604;SDS011;8921;50.964;6.800;2023-03-01T10:14:53;16.40;;;10.73;;
17604;SDS011;8921;50.964;6.800;2023-03-01T10:17:35;17.17;;;10.77;;
17604;SDS011;8921;50.964;6.800;2023-03-01T10:22:48;18.43;;;12.60;;
17604;SDS011;8921;50.964;6.800;2023-03-01T10:25:36;18.57;;;10.97;;
17604;SDS011;8921;50.964;6.800;2023-03-01T10:28:01;18.10;;;10.53;;
17604;SDS011;8921;50.964;6.800;2023-03-01T10:30:39;19.83;;;11.90;;
17604;SDS011;8921;50.964;6.800;2023-03-01T10:33:14;18.40;;;10.67;;
17604;SDS011;8921;50.964;6.800;2023-03-01T10:35:53;18.73;;;11.67;;
17604;SDS011;8921;50.964;6.800;2023-03-01T10:38:22;18.83;;;11.13;;
17604;SDS011;8921;50.964;6.800;2023-03-01T10:43:58;21.00;;;11.00;;
17604;SDS011;8921;50.964;6.800;2023-03-01T10:49:07;16.07;;;10.77;;
17604;SDS011;8921;50.964;6.800;2023-03-01T10:51:34;17.60;;;10.33;;
17604;SDS011;8921;50.964;6.800;2023-03-01T10:54:03;16.67;;;10.07;;
17604;SDS011;8921;50.964;6.800;2023-03-01T10:56:33;18.00;;;10.60;;
17604;SDS011;8921;50.964;6.800;2023-03-01T11:01:29;16.43;;;10.33;;
17604;SDS011;8921;50.964;6.800;2023-03-01T11:06:39;17.70;;;10.40;;
17604;SDS011;8921;50.964;6.800;2023-03-01T11:11:44;18.50;;;11.30;;
17604;SDS011;8921;50.964;6.800;2023-03-01T11:14:16;21.37;;;11.38;;
17604;SDS011;8921;50.964;6.800;2023-03-01T11:16:45;19.67;;;9.80;;
17604;SDS011;8921;50.964;6.800;2023-03-01T11:26:58;17.13;;;10.37;;
17604;SDS011;8921;50.964;6.800;2023-03-01T11:29:27;17.40;;;11.13;;
17604;SDS011;8921;50.964;6.800;2023-03-01T11:32:10;15.30;;;10.00;;
17604;SDS011;8921;50.964;6.800;2023-03-01T11:34:42;17.20;;;10.30;;
17604;SDS011;8921;50.964;6.800;2023-03-01T11:37:14;16.67;;;10.00;;
17604;SDS011;8921;50.964;6.800;2023-03-01T11:40:17;19.90;;;10.00;;
17604;SDS011;8921;50.964;6.800;2023-03-01T11:44:58;18.13;;;9.80;;
17604;SDS011;8921;50.964;6.800;2023-03-01T11:50:14;17.13;;;10.23;;
17604;SDS011;8921;50.964;6.800;2023-03-01T12:01:00;17.70;;;10.30;;
17604;SDS011;8921;50.964;6.800;2023-03-01T12:03:28;22.20;;;10.53;;
17604;SDS011;8921;50.964;6.800;2023-03-01T12:11:35;18.00;;;10.80;;
17604;SDS011;8921;50.964;6.800;2023-03-01T12:25:48;16.00;;;10.17;;
17604;SDS011;8921;50.964;6.800;2023-03-01T12:28:50;15.10;;;9.83;;
17604;SDS011;8921;50.964;6.800;2023-03-01T12:38:41;15.00;;;9.27;;
17604;SDS011;8921;50.964;6.800;2023-03-01T12:44:31;13.53;;;8.70;;
17604;SDS011;8921;50.964;6.800;2023-03-01T12:49:59;19.37;;;9.57;;
17604;SDS011;8921;50.964;6.800;2023-03-01T12:55:01;20.43;;;10.37;;
17604;SDS011;8921;50.964;6.800;2023-03-01T13:10:32;16.00;;;10.60;;
17604;SDS011;8921;50.964;6.800;2023-03-01T13:13:23;14.20;;;8.07;;
17604;SDS011;8921;50.964;6.800;2023-03-01T13:15:50;21.60;;;10.13;;
17604;SDS011;8921;50.964;6.800;2023-03-01T13:20:47;16.10;;;10.03;;
17604;SDS011;8921;50.964;6.800;2023-03-01T13:31:07;18.97;;;10.93;;
17604;SDS011;8921;50.964;6.800;2023-03-01T13:33:39;20.40;;;12.33;;
17604;SDS011;8921;50.964;6.800;2023-03-01T13:36:06;20.50;;;12.53;;
17604;SDS011;8921;50.964;6.800;2023-03-01T13:41:05;18.70;;;12.90;;
17604;SDS011;8921;50.964;6.800;2023-03-01T13:43:37;21.80;;;11.93;;
17604;SDS011;8921;50.964;6.800;2023-03-01T13:46:12;18.37;;;11.00;;
17604;SDS011;8921;50.964;6.800;2023-03-01T13:48:45;21.03;;;11.40;;
17604;SDS011;8921;50.964;6.800;2023-03-01T13:51:13;18.30;;;11.47;;
17604;SDS011;8921;50.964;6.800;2023-03-01T13:53:42;17.63;;;10.77;;
17604;SDS011;8921;50.964;6.800;2023-03-01T13:56:13;17.90;;;12.13;;
17604;SDS011;8921;50.964;6.800;2023-03-01T13:58:46;21.33;;;12.73;;
17604;SDS011;8921;50.964;6.800;2023-03-01T14:01:21;15.50;;;10.37;;
17604;SDS011;8921;50.964;6.800;2023-03-01T14:03:54;20.87;;;9.23;;
17604;SDS011;8921;50.964;6.800;2023-03-01T14:06:26;14.20;;;9.93;;
17604;SDS011;8921;50.964;6.800;2023-03-01T14:09:10;18.67;;;10.97;;
17604;SDS011;8921;50.964;6.800;2023-03-01T14:14:42;17.77;;;10.50;;
17604;SDS011;8921;50.964;6.800;2023-03-01T14:17:31;14.40;;;9.70;;
17604;SDS011;8921;50.964;6.800;2023-03-01T14:20:00;18.73;;;10.40;;
17604;SDS011;8921;50.964;6.800;2023-03-01T14:22:28;23.10;;;10.60;;
17604;SDS011;8921;50.964;6.800;2023-03-01T14:24:56;14.33;;;8.57;;
17604;SDS011;8921;50.964;6.800;2023-03-01T14:27:29;13.67;;;8.37;;
17604;SDS011;8921;50.964;6.800;2023-03-01T14:29:59;12.57;;;8.27;;
17604;SDS011;8921;50.964;6.800;2023-03-01T14:34:54;12.87;;;8.83;;
17604;SDS011;8921;50.964;6.800;2023-03-01T14:37:30;17.10;;;10.03;;
17604;SDS011;8921;50.964;6.800;2023-03-01T14:40:01;14.70;;;8.50;;
17604;SDS011;8921;50.964;6.800;2023-03-01T14:42:29;16.63;;;9.63;;
17604;SDS011;8921;50.964;6.800;2023-03-01T14:44:57;11.90;;;8.00;;
17604;SDS011;8921;50.964;6.800;2023-03-01T14:47:28;15.37;;;8.53;;
17604;SDS011;8921;50.964;6.800;2023-03-01T14:50:03;13.10;;;8.50;;
17604;SDS011;8921;50.964;6.800;2023-03-01T14:52:34;17.10;;;9.00;;
17604;SDS011;8921;50.964;6.800;2023-03-01T14:55:05;15.47;;;10.13;;
17604;SDS011;8921;50.964;6.800;2023-03-01T14:57:32;16.37;;;9.50;;
17604;SDS011;8921;50.964;6.800;2023-03-01T15:00:01;28.10;;;10.03;;
17604;SDS011;8921;50.964;6.800;2023-03-01T15:02:28;17.83;;;9.17;;
17604;SDS011;8921;50.964;6.800;2023-03-01T15:04:57;16.77;;;8.97;;
17604;SDS011;8921;50.964;6.800;2023-03-01T15:07:26;13.70;;;9.10;;
17604;SDS011;8921;50.964;6.800;2023-03-01T15:09:53;16.67;;;10.47;;
17604;SDS011;8921;50.964;6.800;2023-03-01T15:14:56;13.83;;;8.90;;
17604;SDS011;8921;50.964;6.800;2023-03-01T15:17:34;19.10;;;9.57;;
17604;SDS011;8921;50.964;6.800;2023-03-01T15:20:02;13.33;;;7.83;;
17604;SDS011;8921;50.964;6.800;2023-03-01T15:22:29;17.17;;;9.33;;
17604;SDS011;8921;50.964;6.800;2023-03-01T15:24:58;12.83;;;8.00;;
17604;SDS011;8921;50.964;6.800;2023-03-01T15:27:26;12.90;;;8.27;;
17604;SDS011;8921;50.964;6.800;2023-03-01T15:29:55;16.47;;;9.13;;
17604;SDS011;8921;50.964;6.800;2023-03-01T15:32:35;14.83;;;7.30;;
17604;SDS011;8921;50.964;6.800;2023-03-01T15:41:04;15.20;;;9.30;;
17604;SDS011;8921;50.964;6.800;2023-03-01T15:43:44;17.30;;;9.40;;
17604;SDS011;8921;50.964;6.800;2023-03-01T15:46:33;14.30;;;8.43;;
17604;SDS011;8921;50.964;6.800;2023-03-01T15:48:47;20.23;;;8.37;;
17604;SDS011;8921;50.964;6.800;2023-03-01T15:51:14;12.77;;;8.50;;
17604;SDS011;8921;50.964;6.800;2023-03-01T15:53:47;15.83;;;8.53;;
17604;SDS011;8921;50.964;6.800;2023-03-01T15:56:10;18.20;;;10.10;;
17604;SDS011;8921;50.964;6.800;2023-03-01T15:58:39;15.50;;;7.87;;
17604;SDS011;8921;50.964;6.800;2023-03-01T16:01:09;15.77;;;9.80;;
17604;SDS011;8921;50.964;6.800;2023-03-01T16:03:35;16.13;;;8.23;;
17604;SDS011;8921;50.964;6.800;2023-03-01T16:06:04;13.00;;;7.53;;
17604;SDS011;8921;50.964;6.800;2023-03-01T16:08:32;11.90;;;8.30;;
17604;SDS011;8921;50.964;6.800;2023-03-01T16:11:00;18.07;;;9.13;;
17604;SDS011;8921;50.964;6.800;2023-03-01T16:13:29;15.10;;;8.27;;
17604;SDS011;8921;50.964;6.800;2023-03-01T16:15:57;14.50;;;8.93;;
17604;SDS011;8921;50.964;6.800;2023-03-01T16:18:25;14.17;;;8.53;;
17604;SDS011;8921;50.964;6.800;2023-03-01T16:20:53;13.10;;;7.60;;
17604;SDS011;8921;50.964;6.800;2023-03-01T16:23:22;14.47;;;8.17;;
17604;SDS011;8921;50.964;6.800;2023-03-01T16:25:50;16.93;;;8.70;;
17604;SDS011;8921;50.964;6.800;2023-03-01T16:28:18;16.43;;;8.57;;
17604;SDS011;8921;50.964;6.800;2023-03-01T16:30:47;16.73;;;8.20;;
17604;SDS011;8921;50.964;6.800;2023-03-01T16:33:15;11.43;;;7.10;;
17604;SDS011;8921;50.964;6.800;2023-03-01T16:35:43;16.03;;;9.10;;
17604;SDS011;8921;50.964;6.800;2023-03-01T16:38:11;14.23;;;8.20;;
17604;SDS011;8921;50.964;6.800;2023-03-01T16:40:40;14.30;;;7.30;;
17604;SDS011;8921;50.964;6.800;2023-03-01T16:43:08;12.40;;;7.40;;
17604;SDS011;8921;50.964;6.800;2023-03-01T16:45:36;14.47;;;8.40;;
17604;SDS011;8921;50.964;6.800;2023-03-01T16:48:04;10.73;;;6.73;;
17604;SDS011;8921;50.964;6.800;2023-03-01T16:50:33;20.00;;;8.60;;
17604;SDS011;8921;50.964;6.800;2023-03-01T16:53:01;13.83;;;6.87;;
17604;SDS011;8921;50.964;6.800;2023-03-01T16:55:29;16.37;;;7.60;;
17604;SDS011;8921;50.964;6.800;2023-03-01T16:57:58;13.67;;;8.20;;